sensor_id;sensor_type;location;lat;lon;timestamp;temperature;humidity
2300;DHT22;1158;48.750;9.078;2024-02-28T00:01:29;5.80;99.90
2300;DHT22;1158;48.750;9.078;2024-02-28T00:03:56;5.70;99.90
2300;DHT22;1158;48.750;9.078;2024-02-28T00:06:22;5.70;99.90
2300;DHT22;1158;48.750;9.078;2024-02-28T00:08:49;5.70;99.90
2300;DHT22;1158;48.750;9.078;2024-02-28T00:11:18;5.70;99.90
2300;DHT22;1158;48.750;9.078;2024-02-28T00:13:46;5.60;99.90
2300;DHT22;1158;48.750;9.078;2024-02-28T00:16:13;5.60;99.90
2300;DHT22;1158;48.750;9.078;2024-02-28T00:18:40;5.60;99.90
2300;DHT22;1158;48.750;9.078;2024-02-28T00:21:06;5.60;99.90
2300;DHT22;1158;48.750;9.078;2024-02-28T00:23:33;5.60;99.90
2300;DHT22;1158;48.750;9.078;2024-02-28T00:26:00;5.50;99.90
2300;DHT22;1158;48.750;9.078;2024-02-28T00:28:27;5.40;99.90
2300;DHT22;1158;48.750;9.078;2024-02-28T00:30:55;5.30;99.90
2300;DHT22;1158;48.750;9.078;2024-02-28T00:33:22;5.10;99.90
2300;DHT22;1158;48.750;9.078;2024-02-28T00:35:48;5.00;99.90
2300;DHT22;1158;48.750;9.078;2024-02-28T00:38:15;4.80;99.90
2300;DHT22;1158;48.750;9.078;2024-02-28T00:40:42;4.70;99.90
2300;DHT22;1158;48.750;9.078;2024-02-28T00:43:09;4.60;99.90
2300;DHT22;1158;48.750;9.078;2024-02-28T00:45:35;4.50;99.90
2300;DHT22;1158;48.750;9.078;2024-02-28T00:48:04;4.40;99.90
2300;DHT22;1158;48.750;9.078;2024-02-28T00:50:31;4.30;99.90
2300;DHT22;1158;48.750;9.078;2024-02-28T00:52:58;4.20;99.90
2300;DHT22;1158;48.750;9.078;2024-02-28T00:55:24;4.20;99.90
2300;DHT22;1158;48.750;9.078;2024-02-28T00:57:51;4.20;99.90
2300;DHT22;1158;48.750;9.078;2024-02-28T01:00:18;4.30;99.90
2300;DHT22;1158;48.750;9.078;2024-02-28T01:02:45;4.30;99.90
2300;DHT22;1158;48.750;9.078;2024-02-28T01:05:13;4.30;99.90
2300;DHT22;1158;48.750;9.078;2024-02-28T01:07:40;4.40;99.90
2300;DHT22;1158;48.750;9.078;2024-02-28T01:10:07;4.40;99.90
2300;DHT22;1158;48.750;9.078;2024-02-28T01:12:34;4.40;99.90
2300;DHT22;1158;48.750;9.078;2024-02-28T01:15:00;4.50;99.90
2300;DHT22;1158;48.750;9.078;2024-02-28T01:17:27;4.60;99.90
2300;DHT22;1158;48.750;9.078;2024-02-28T01:19:54;4.60;99.90
2300;DHT22;1158;48.750;9.078;2024-02-28T01:22:22;4.60;99.90
2300;DHT22;1158;48.750;9.078;2024-02-28T01:24:48;4.70;99.90
2300;DHT22;1158;48.750;9.078;2024-02-28T01:27:15;4.70;99.90
2300;DHT22;1158;48.750;9.078;2024-02-28T01:29:42;4.70;99.90
2300;DHT22;1158;48.750;9.078;2024-02-28T01:32:08;4.80;99.90
2300;DHT22;1158;48.750;9.078;2024-02-28T01:34:35;4.80;99.90
2300;DHT22;1158;48.750;9.078;2024-02-28T01:37:02;4.90;99.90
2300;DHT22;1158;48.750;9.078;2024-02-28T01:39:30;4.90;99.90
2300;DHT22;1158;48.750;9.078;2024-02-28T01:41:56;4.90;99.90
2300;DHT22;1158;48.750;9.078;2024-02-28T01:44:23;4.90;99.90
2300;DHT22;1158;48.750;9.078;2024-02-28T01:46:51;4.90;99.90
2300;DHT22;1158;48.750;9.078;2024-02-28T01:49:20;5.00;99.90
2300;DHT22;1158;48.750;9.078;2024-02-28T01:51:47;5.00;99.90
2300;DHT22;1158;48.750;9.078;2024-02-28T01:54:14;5.00;99.90
2300;DHT22;1158;48.750;9.078;2024-02-28T01:56:43;5.00;99.90
2300;DHT22;1158;48.750;9.078;2024-02-28T01:59:11;5.00;99.90
2300;DHT22;1158;48.750;9.078;2024-02-28T02:01:38;5.00;99.90
2300;DHT22;1158;48.750;9.078;2024-02-28T02:04:05;5.10;99.90
2300;DHT22;1158;48.750;9.078;2024-02-28T02:06:32;5.10;99.90
2300;DHT22;1158;48.750;9.078;2024-02-28T02:09:01;5.10;99.90
2300;DHT22;1158;48.750;9.078;2024-02-28T02:11:28;5.10;99.90
2300;DHT22;1158;48.750;9.078;2024-02-28T02:13:56;5.10;99.90
2300;DHT22;1158;48.750;9.078;2024-02-28T02:16:23;5.10;99.90
2300;DHT22;1158;48.750;9.078;2024-02-28T02:18:51;5.00;99.90
2300;DHT22;1158;48.750;9.078;2024-02-28T02:21:20;5.10;99.90
2300;DHT22;1158;48.750;9.078;2024-02-28T02:23:50;5.10;99.90
2300;DHT22;1158;48.750;9.078;2024-02-28T02:26:17;5.10;99.90
2300;DHT22;1158;48.750;9.078;2024-02-28T02:28:43;5.10;99.90
2300;DHT22;1158;48.750;9.078;2024-02-28T02:31:11;5.10;99.90
2300;DHT22;1158;48.750;9.078;2024-02-28T02:33:38;5.10;99.90
2300;DHT22;1158;48.750;9.078;2024-02-28T02:36:05;5.10;99.90
2300;DHT22;1158;48.750;9.078;2024-02-28T02:38:31;5.10;99.90
2300;DHT22;1158;48.750;9.078;2024-02-28T02:40:59;5.10;99.90
2300;DHT22;1158;48.750;9.078;2024-02-28T02:43:26;5.10;99.90
2300;DHT22;1158;48.750;9.078;2024-02-28T02:45:53;5.10;99.90
2300;DHT22;1158;48.750;9.078;2024-02-28T02:48:19;5.10;99.90
2300;DHT22;1158;48.750;9.078;2024-02-28T02:50:46;5.10;99.90
2300;DHT22;1158;48.750;9.078;2024-02-28T02:53:14;5.10;99.90
2300;DHT22;1158;48.750;9.078;2024-02-28T02:55:40;5.10;99.90
2300;DHT22;1158;48.750;9.078;2024-02-28T02:58:08;5.10;99.90
2300;DHT22;1158;48.750;9.078;2024-02-28T03:00:35;5.10;99.90
2300;DHT22;1158;48.750;9.078;2024-02-28T03:03:02;5.10;99.90
2300;DHT22;1158;48.750;9.078;2024-02-28T03:05:28;5.10;99.90
2300;DHT22;1158;48.750;9.078;2024-02-28T03:07:55;5.10;99.90
2300;DHT22;1158;48.750;9.078;2024-02-28T03:10:22;5.10;99.90
2300;DHT22;1158;48.750;9.078;2024-02-28T03:12:48;5.10;99.90
2300;DHT22;1158;48.750;9.078;2024-02-28T03:15:16;5.10;99.90
2300;DHT22;1158;48.750;9.078;2024-02-28T03:17:43;5.10;99.90
2300;DHT22;1158;48.750;9.078;2024-02-28T03:20:11;5.10;99.90
2300;DHT22;1158;48.750;9.078;2024-02-28T03:22:38;5.10;99.90
2300;DHT22;1158;48.750;9.078;2024-02-28T03:25:06;5.10;99.90
2300;DHT22;1158;48.750;9.078;2024-02-28T03:27:33;5.10;99.90
2300;DHT22;1158;48.750;9.078;2024-02-28T03:29:59;5.10;99.90
2300;DHT22;1158;48.750;9.078;2024-02-28T03:32:28;5.10;99.90
2300;DHT22;1158;48.750;9.078;2024-02-28T03:34:55;5.10;99.90
2300;DHT22;1158;48.750;9.078;2024-02-28T03:37:22;5.10;99.90
2300;DHT22;1158;48.750;9.078;2024-02-28T03:39:48;5.10;99.90
2300;DHT22;1158;48.750;9.078;2024-02-28T03:42:15;5.10;99.90
2300;DHT22;1158;48.750;9.078;2024-02-28T03:44:42;5.10;99.90
2300;DHT22;1158;48.750;9.078;2024-02-28T03:47:09;5.10;99.90
2300;DHT22;1158;48.750;9.078;2024-02-28T03:49:37;5.10;99.90
2300;DHT22;1158;48.750;9.078;2024-02-28T03:52:04;5.10;99.90
2300;DHT22;1158;48.750;9.078;2024-02-28T03:54:31;5.10;99.90
2300;DHT22;1158;48.750;9.078;2024-02-28T03:56:58;5.00;99.90
2300;DHT22;1158;48.750;9.078;2024-02-28T03:59:25;5.10;99.90
2300;DHT22;1158;48.750;9.078;2024-02-28T04:01:52;5.10;99.90
2300;DHT22;1158;48.750;9.078;2024-02-28T04:04:18;5.10;99.90
2300;DHT22;1158;48.750;9.078;2024-02-28T04:06:46;5.10;99.90
2300;DHT22;1158;48.750;9.078;2024-02-28T04:09:13;5.00;99.90
2300;DHT22;1158;48.750;9.078;2024-02-28T04:11:40;5.00;99.90
2300;DHT22;1158;48.750;9.078;2024-02-28T04:14:08;5.00;99.90
2300;DHT22;1158;48.750;9.078;2024-02-28T04:16:35;5.00;99.90
2300;DHT22;1158;48.750;9.078;2024-02-28T04:19:06;5.00;99.90
2300;DHT22;1158;48.750;9.078;2024-02-28T04:21:33;5.00;99.90
2300;DHT22;1158;48.750;9.078;2024-02-28T04:24:01;5.00;99.90
2300;DHT22;1158;48.750;9.078;2024-02-28T04:26:28;5.00;99.90
2300;DHT22;1158;48.750;9.078;2024-02-28T04:28:55;5.00;99.90
2300;DHT22;1158;48.750;9.078;2024-02-28T04:31:22;5.00;99.90
2300;DHT22;1158;48.750;9.078;2024-02-28T04:33:49;4.90;99.90
2300;DHT22;1158;48.750;9.078;2024-02-28T04:36:15;4.90;99.90
2300;DHT22;1158;48.750;9.078;2024-02-28T04:38:42;4.90;99.90
2300;DHT22;1158;48.750;9.078;2024-02-28T04:41:10;4.90;99.90
2300;DHT22;1158;48.750;9.078;2024-02-28T04:43:37;4.90;99.90
2300;DHT22;1158;48.750;9.078;2024-02-28T04:46:04;4.80;99.90
2300;DHT22;1158;48.750;9.078;2024-02-28T04:48:31;4.90;99.90
2300;DHT22;1158;48.750;9.078;2024-02-28T04:50:59;4.80;99.90
2300;DHT22;1158;48.750;9.078;2024-02-28T04:53:25;4.90;99.90
2300;DHT22;1158;48.750;9.078;2024-02-28T04:55:52;4.90;99.90
2300;DHT22;1158;48.750;9.078;2024-02-28T04:58:20;4.80;99.90
2300;DHT22;1158;48.750;9.078;2024-02-28T05:00:46;4.80;99.90
2300;DHT22;1158;48.750;9.078;2024-02-28T05:03:13;4.80;99.90
2300;DHT22;1158;48.750;9.078;2024-02-28T05:05:40;4.90;99.90
2300;DHT22;1158;48.750;9.078;2024-02-28T05:08:06;4.80;99.90
2300;DHT22;1158;48.750;9.078;2024-02-28T05:10:33;4.90;99.90
2300;DHT22;1158;48.750;9.078;2024-02-28T05:13:00;4.90;99.90
2300;DHT22;1158;48.750;9.078;2024-02-28T05:15:30;4.90;99.90
2300;DHT22;1158;48.750;9.078;2024-02-28T05:17:57;4.90;99.90
2300;DHT22;1158;48.750;9.078;2024-02-28T05:20:24;4.80;99.90
2300;DHT22;1158;48.750;9.078;2024-02-28T05:22:50;4.80;99.90
2300;DHT22;1158;48.750;9.078;2024-02-28T05:25:17;4.80;99.90
2300;DHT22;1158;48.750;9.078;2024-02-28T05:27:44;4.80;99.90
2300;DHT22;1158;48.750;9.078;2024-02-28T05:30:11;4.80;99.90
2300;DHT22;1158;48.750;9.078;2024-02-28T05:32:39;4.80;99.90
2300;DHT22;1158;48.750;9.078;2024-02-28T05:35:06;4.80;99.90
2300;DHT22;1158;48.750;9.078;2024-02-28T05:37:37;4.80;99.90
2300;DHT22;1158;48.750;9.078;2024-02-28T05:40:06;4.80;99.90
2300;DHT22;1158;48.750;9.078;2024-02-28T05:42:33;4.80;99.90
2300;DHT22;1158;48.750;9.078;2024-02-28T05:44:59;4.80;99.90
2300;DHT22;1158;48.750;9.078;2024-02-28T05:47:26;4.80;99.90
2300;DHT22;1158;48.750;9.078;2024-02-28T05:49:55;4.80;99.90
2300;DHT22;1158;48.750;9.078;2024-02-28T05:52:23;4.80;99.90
2300;DHT22;1158;48.750;9.078;2024-02-28T05:54:50;4.80;99.90
2300;DHT22;1158;48.750;9.078;2024-02-28T05:57:17;4.70;99.90
2300;DHT22;1158;48.750;9.078;2024-02-28T05:59:44;4.70;99.90
2300;DHT22;1158;48.750;9.078;2024-02-28T06:02:10;4.70;99.90
2300;DHT22;1158;48.750;9.078;2024-02-28T06:04:38;4.60;99.90
2300;DHT22;1158;48.750;9.078;2024-02-28T06:07:06;4.60;99.90
2300;DHT22;1158;48.750;9.078;2024-02-28T06:09:33;4.60;99.90
2300;DHT22;1158;48.750;9.078;2024-02-28T06:11:59;4.60;99.90
2300;DHT22;1158;48.750;9.078;2024-02-28T06:14:27;4.60;99.90
2300;DHT22;1158;48.750;9.078;2024-02-28T06:16:53;4.60;99.90
2300;DHT22;1158;48.750;9.078;2024-02-28T06:19:20;4.60;99.90
2300;DHT22;1158;48.750;9.078;2024-02-28T06:21:47;4.60;99.90
2300;DHT22;1158;48.750;9.078;2024-02-28T06:24:15;4.70;99.90
2300;DHT22;1158;48.750;9.078;2024-02-28T06:26:41;4.70;99.90
2300;DHT22;1158;48.750;9.078;2024-02-28T06:29:08;4.60;99.90
2300;DHT22;1158;48.750;9.078;2024-02-28T06:31:35;4.60;99.90
2300;DHT22;1158;48.750;9.078;2024-02-28T06:34:03;4.60;99.90
2300;DHT22;1158;48.750;9.078;2024-02-28T06:36:29;4.60;99.90
2300;DHT22;1158;48.750;9.078;2024-02-28T06:38:57;4.60;99.90
2300;DHT22;1158;48.750;9.078;2024-02-28T06:41:26;4.60;99.90
2300;DHT22;1158;48.750;9.078;2024-02-28T06:43:54;4.60;99.90
2300;DHT22;1158;48.750;9.078;2024-02-28T06:46:20;4.70;99.90
2300;DHT22;1158;48.750;9.078;2024-02-28T06:48:47;4.60;99.90
2300;DHT22;1158;48.750;9.078;2024-02-28T06:51:16;4.60;99.90
2300;DHT22;1158;48.750;9.078;2024-02-28T06:53:42;4.60;99.90
2300;DHT22;1158;48.750;9.078;2024-02-28T06:56:09;4.70;99.90
2300;DHT22;1158;48.750;9.078;2024-02-28T06:58:37;4.80;99.90
2300;DHT22;1158;48.750;9.078;2024-02-28T07:01:04;4.80;99.90
2300;DHT22;1158;48.750;9.078;2024-02-28T07:03:31;4.90;99.90
2300;DHT22;1158;48.750;9.078;2024-02-28T07:05:58;5.00;99.90
2300;DHT22;1158;48.750;9.078;2024-02-28T07:08:24;5.00;99.90
2300;DHT22;1158;48.750;9.078;2024-02-28T07:10:51;5.00;99.90
2300;DHT22;1158;48.750;9.078;2024-02-28T07:13:19;5.00;99.90
2300;DHT22;1158;48.750;9.078;2024-02-28T07:15:47;5.00;99.90
2300;DHT22;1158;48.750;9.078;2024-02-28T07:18:14;5.00;99.90
2300;DHT22;1158;48.750;9.078;2024-02-28T07:20:41;5.00;99.90
2300;DHT22;1158;48.750;9.078;2024-02-28T07:23:08;5.00;99.90
2300;DHT22;1158;48.750;9.078;2024-02-28T07:25:34;5.00;99.90
2300;DHT22;1158;48.750;9.078;2024-02-28T07:28:01;4.90;99.90
2300;DHT22;1158;48.750;9.078;2024-02-28T07:30:28;5.00;99.90
2300;DHT22;1158;48.750;9.078;2024-02-28T07:32:57;5.10;99.90
2300;DHT22;1158;48.750;9.078;2024-02-28T07:35:24;5.20;99.90
2300;DHT22;1158;48.750;9.078;2024-02-28T07:37:50;5.30;99.90
2300;DHT22;1158;48.750;9.078;2024-02-28T07:40:17;5.30;99.90
2300;DHT22;1158;48.750;9.078;2024-02-28T07:42:44;5.20;99.90
2300;DHT22;1158;48.750;9.078;2024-02-28T07:45:10;5.30;99.90
2300;DHT22;1158;48.750;9.078;2024-02-28T07:47:37;5.30;99.90
2300;DHT22;1158;48.750;9.078;2024-02-28T07:50:07;5.30;99.90
2300;DHT22;1158;48.750;9.078;2024-02-28T07:52:34;5.30;99.90
2300;DHT22;1158;48.750;9.078;2024-02-28T07:55:03;5.30;99.90
2300;DHT22;1158;48.750;9.078;2024-02-28T07:57:30;5.20;99.90
2300;DHT22;1158;48.750;9.078;2024-02-28T07:59:57;5.30;99.90
2300;DHT22;1158;48.750;9.078;2024-02-28T08:02:24;5.40;99.90
2300;DHT22;1158;48.750;9.078;2024-02-28T08:04:51;5.40;99.90
2300;DHT22;1158;48.750;9.078;2024-02-28T08:07:19;5.50;99.90
2300;DHT22;1158;48.750;9.078;2024-02-28T08:09:45;5.40;99.90
2300;DHT22;1158;48.750;9.078;2024-02-28T08:12:12;5.50;99.90
2300;DHT22;1158;48.750;9.078;2024-02-28T08:14:39;5.40;99.90
2300;DHT22;1158;48.750;9.078;2024-02-28T08:17:05;5.40;99.90
2300;DHT22;1158;48.750;9.078;2024-02-28T08:19:32;5.50;99.90
2300;DHT22;1158;48.750;9.078;2024-02-28T08:22:00;5.60;99.90
2300;DHT22;1158;48.750;9.078;2024-02-28T08:24:29;5.70;99.90
2300;DHT22;1158;48.750;9.078;2024-02-28T08:26:56;5.70;99.90
2300;DHT22;1158;48.750;9.078;2024-02-28T08:29:22;5.90;99.90
2300;DHT22;1158;48.750;9.078;2024-02-28T08:31:50;5.70;99.90
2300;DHT22;1158;48.750;9.078;2024-02-28T08:34:17;5.70;99.90
2300;DHT22;1158;48.750;9.078;2024-02-28T08:36:44;6.00;99.90
2300;DHT22;1158;48.750;9.078;2024-02-28T08:39:10;6.10;99.90
2300;DHT22;1158;48.750;9.078;2024-02-28T08:41:38;6.10;99.90
2300;DHT22;1158;48.750;9.078;2024-02-28T08:44:05;6.10;99.90
2300;DHT22;1158;48.750;9.078;2024-02-28T08:46:32;6.10;99.90
2300;DHT22;1158;48.750;9.078;2024-02-28T08:48:58;6.10;99.90
2300;DHT22;1158;48.750;9.078;2024-02-28T08:51:25;6.10;99.90
2300;DHT22;1158;48.750;9.078;2024-02-28T08:53:52;6.10;99.90
2300;DHT22;1158;48.750;9.078;2024-02-28T08:56:20;6.10;99.90
2300;DHT22;1158;48.750;9.078;2024-02-28T08:58:48;6.20;99.90
2300;DHT22;1158;48.750;9.078;2024-02-28T09:01:15;6.20;99.90
2300;DHT22;1158;48.750;9.078;2024-02-28T09:03:42;6.20;99.90
2300;DHT22;1158;48.750;9.078;2024-02-28T09:06:09;6.20;99.90
2300;DHT22;1158;48.750;9.078;2024-02-28T09:08:37;6.20;99.90
2300;DHT22;1158;48.750;9.078;2024-02-28T09:11:03;6.20;99.90
2300;DHT22;1158;48.750;9.078;2024-02-28T09:13:31;6.30;99.90
2300;DHT22;1158;48.750;9.078;2024-02-28T09:16:01;6.30;99.90
2300;DHT22;1158;48.750;9.078;2024-02-28T09:18:28;6.20;99.90
2300;DHT22;1158;48.750;9.078;2024-02-28T09:20:54;6.00;99.90
2300;DHT22;1158;48.750;9.078;2024-02-28T09:23:21;5.90;99.90
2300;DHT22;1158;48.750;9.078;2024-02-28T09:25:48;6.00;99.90
2300;DHT22;1158;48.750;9.078;2024-02-28T09:28:15;6.10;99.90
2300;DHT22;1158;48.750;9.078;2024-02-28T09:30:42;6.20;99.90
2300;DHT22;1158;48.750;9.078;2024-02-28T09:33:10;6.00;99.90
2300;DHT22;1158;48.750;9.078;2024-02-28T09:35:37;6.20;99.90
2300;DHT22;1158;48.750;9.078;2024-02-28T09:38:04;7.10;99.90
2300;DHT22;1158;48.750;9.078;2024-02-28T09:40:31;7.10;99.90
2300;DHT22;1158;48.750;9.078;2024-02-28T09:43:01;6.60;99.90
2300;DHT22;1158;48.750;9.078;2024-02-28T09:45:29;6.60;99.90
2300;DHT22;1158;48.750;9.078;2024-02-28T09:47:58;6.50;99.90
2300;DHT22;1158;48.750;9.078;2024-02-28T09:50:27;6.60;99.90
2300;DHT22;1158;48.750;9.078;2024-02-28T09:52:54;6.60;99.90
2300;DHT22;1158;48.750;9.078;2024-02-28T09:55:24;6.50;99.90
2300;DHT22;1158;48.750;9.078;2024-02-28T09:57:52;6.80;99.90
2300;DHT22;1158;48.750;9.078;2024-02-28T10:00:20;7.00;99.90
2300;DHT22;1158;48.750;9.078;2024-02-28T10:02:47;7.10;99.90
2300;DHT22;1158;48.750;9.078;2024-02-28T10:05:15;7.10;99.90
2300;DHT22;1158;48.750;9.078;2024-02-28T10:07:45;7.00;99.90
2300;DHT22;1158;48.750;9.078;2024-02-28T10:10:12;7.00;99.90
2300;DHT22;1158;48.750;9.078;2024-02-28T10:12:41;7.00;99.90
2300;DHT22;1158;48.750;9.078;2024-02-28T10:15:09;7.00;99.90
2300;DHT22;1158;48.750;9.078;2024-02-28T10:17:36;7.10;99.90
2300;DHT22;1158;48.750;9.078;2024-02-28T10:20:03;7.10;99.90
2300;DHT22;1158;48.750;9.078;2024-02-28T10:22:34;7.20;99.90
2300;DHT22;1158;48.750;9.078;2024-02-28T10:25:02;7.20;99.90
2300;DHT22;1158;48.750;9.078;2024-02-28T10:27:32;7.40;99.90
2300;DHT22;1158;48.750;9.078;2024-02-28T10:29:58;7.30;99.90
2300;DHT22;1158;48.750;9.078;2024-02-28T10:32:25;7.10;99.90
2300;DHT22;1158;48.750;9.078;2024-02-28T10:34:53;7.00;99.90
2300;DHT22;1158;48.750;9.078;2024-02-28T10:37:21;7.10;99.90
2300;DHT22;1158;48.750;9.078;2024-02-28T10:39:49;7.20;99.90
2300;DHT22;1158;48.750;9.078;2024-02-28T10:42:19;7.50;99.90
2300;DHT22;1158;48.750;9.078;2024-02-28T10:44:49;8.10;99.90
2300;DHT22;1158;48.750;9.078;2024-02-28T10:47:17;8.70;99.90
2300;DHT22;1158;48.750;9.078;2024-02-28T10:49:44;8.90;99.90
2300;DHT22;1158;48.750;9.078;2024-02-28T10:52:11;8.90;99.90
2300;DHT22;1158;48.750;9.078;2024-02-28T10:54:40;8.60;99.90
2300;DHT22;1158;48.750;9.078;2024-02-28T10:57:07;8.40;99.90
2300;DHT22;1158;48.750;9.078;2024-02-28T10:59:37;8.10;99.90
2300;DHT22;1158;48.750;9.078;2024-02-28T11:02:05;7.90;99.90
2300;DHT22;1158;48.750;9.078;2024-02-28T11:04:32;7.60;99.90
2300;DHT22;1158;48.750;9.078;2024-02-28T11:07:00;8.00;99.90
2300;DHT22;1158;48.750;9.078;2024-02-28T11:09:28;7.70;99.90
2300;DHT22;1158;48.750;9.078;2024-02-28T11:11:56;7.40;99.90
2300;DHT22;1158;48.750;9.078;2024-02-28T11:14:22;7.70;99.90
2300;DHT22;1158;48.750;9.078;2024-02-28T11:17:01;7.70;99.90
2300;DHT22;1158;48.750;9.078;2024-02-28T11:19:28;8.40;99.90
2300;DHT22;1158;48.750;9.078;2024-02-28T11:21:58;8.00;99.90
2300;DHT22;1158;48.750;9.078;2024-02-28T11:24:28;8.40;99.90
2300;DHT22;1158;48.750;9.078;2024-02-28T11:26:56;8.40;99.90
2300;DHT22;1158;48.750;9.078;2024-02-28T11:29:24;8.20;99.90
2300;DHT22;1158;48.750;9.078;2024-02-28T11:31:51;7.90;99.90
2300;DHT22;1158;48.750;9.078;2024-02-28T11:34:19;7.50;99.90
2300;DHT22;1158;48.750;9.078;2024-02-28T11:36:47;7.80;99.90
2300;DHT22;1158;48.750;9.078;2024-02-28T11:39:15;8.30;99.90
2300;DHT22;1158;48.750;9.078;2024-02-28T11:41:41;8.20;99.90
2300;DHT22;1158;48.750;9.078;2024-02-28T11:44:12;8.20;99.90
2300;DHT22;1158;48.750;9.078;2024-02-28T11:46:42;8.00;99.90
2300;DHT22;1158;48.750;9.078;2024-02-28T11:49:09;7.50;99.90
2300;DHT22;1158;48.750;9.078;2024-02-28T11:51:37;7.40;99.90
2300;DHT22;1158;48.750;9.078;2024-02-28T11:54:03;7.30;99.90
2300;DHT22;1158;48.750;9.078;2024-02-28T11:56:31;7.20;99.90
2300;DHT22;1158;48.750;9.078;2024-02-28T11:58:58;7.30;99.90
2300;DHT22;1158;48.750;9.078;2024-02-28T12:01:34;7.30;99.90
2300;DHT22;1158;48.750;9.078;2024-02-28T12:04:02;7.40;99.90
2300;DHT22;1158;48.750;9.078;2024-02-28T12:06:29;7.50;99.90
2300;DHT22;1158;48.750;9.078;2024-02-28T12:08:57;7.50;99.90
2300;DHT22;1158;48.750;9.078;2024-02-28T12:11:24;7.40;99.90
2300;DHT22;1158;48.750;9.078;2024-02-28T12:13:53;7.50;99.90
2300;DHT22;1158;48.750;9.078;2024-02-28T12:16:22;7.30;99.90
2300;DHT22;1158;48.750;9.078;2024-02-28T12:18:49;7.30;99.90
2300;DHT22;1158;48.750;9.078;2024-02-28T12:21:16;7.40;99.90
2300;DHT22;1158;48.750;9.078;2024-02-28T12:23:42;7.60;99.90
2300;DHT22;1158;48.750;9.078;2024-02-28T12:26:10;7.70;99.90
2300;DHT22;1158;48.750;9.078;2024-02-28T12:28:37;7.70;99.90
2300;DHT22;1158;48.750;9.078;2024-02-28T12:31:05;7.50;99.90
2300;DHT22;1158;48.750;9.078;2024-02-28T12:33:34;7.50;99.90
2300;DHT22;1158;48.750;9.078;2024-02-28T12:36:01;7.30;99.90
2300;DHT22;1158;48.750;9.078;2024-02-28T12:38:28;7.40;99.90
2300;DHT22;1158;48.750;9.078;2024-02-28T12:40:56;7.40;99.90
2300;DHT22;1158;48.750;9.078;2024-02-28T12:43:24;7.40;99.90
2300;DHT22;1158;48.750;9.078;2024-02-28T12:45:51;7.30;99.90
2300;DHT22;1158;48.750;9.078;2024-02-28T12:48:18;7.50;99.90
2300;DHT22;1158;48.750;9.078;2024-02-28T12:50:45;7.50;99.90
2300;DHT22;1158;48.750;9.078;2024-02-28T12:53:11;7.50;99.90
2300;DHT22;1158;48.750;9.078;2024-02-28T12:55:39;7.70;99.90
2300;DHT22;1158;48.750;9.078;2024-02-28T12:58:06;7.60;99.90
2300;DHT22;1158;48.750;9.078;2024-02-28T13:00:34;7.50;99.90
2300;DHT22;1158;48.750;9.078;2024-02-28T13:03:01;8.30;99.90
2300;DHT22;1158;48.750;9.078;2024-02-28T13:05:28;8.80;99.90
2300;DHT22;1158;48.750;9.078;2024-02-28T13:07:55;8.40;99.90
2300;DHT22;1158;48.750;9.078;2024-02-28T13:10:22;7.70;99.90
2300;DHT22;1158;48.750;9.078;2024-02-28T13:12:49;7.60;99.90
2300;DHT22;1158;48.750;9.078;2024-02-28T13:15:16;7.40;99.90
2300;DHT22;1158;48.750;9.078;2024-02-28T13:17:46;7.30;99.90
2300;DHT22;1158;48.750;9.078;2024-02-28T13:20:15;7.30;99.90
2300;DHT22;1158;48.750;9.078;2024-02-28T13:22:41;7.20;99.90
2300;DHT22;1158;48.750;9.078;2024-02-28T13:25:08;7.20;99.90
2300;DHT22;1158;48.750;9.078;2024-02-28T13:27:36;7.00;99.90
2300;DHT22;1158;48.750;9.078;2024-02-28T13:30:03;7.20;99.90
2300;DHT22;1158;48.750;9.078;2024-02-28T13:32:30;7.20;99.90
2300;DHT22;1158;48.750;9.078;2024-02-28T13:34:58;7.20;99.90
2300;DHT22;1158;48.750;9.078;2024-02-28T13:37:25;7.20;99.90
2300;DHT22;1158;48.750;9.078;2024-02-28T13:39:52;6.80;99.90
2300;DHT22;1158;48.750;9.078;2024-02-28T13:42:19;6.90;99.90
2300;DHT22;1158;48.750;9.078;2024-02-28T13:44:46;6.80;99.90
2300;DHT22;1158;48.750;9.078;2024-02-28T13:47:12;7.20;99.90
2300;DHT22;1158;48.750;9.078;2024-02-28T13:49:39;7.60;99.90
2300;DHT22;1158;48.750;9.078;2024-02-28T13:52:07;7.60;99.90
2300;DHT22;1158;48.750;9.078;2024-02-28T13:54:34;7.50;99.90
2300;DHT22;1158;48.750;9.078;2024-02-28T13:57:01;7.40;99.90
2300;DHT22;1158;48.750;9.078;2024-02-28T13:59:29;7.40;99.90
2300;DHT22;1158;48.750;9.078;2024-02-28T14:01:56;7.40;99.90
2300;DHT22;1158;48.750;9.078;2024-02-28T14:04:24;7.40;99.90
2300;DHT22;1158;48.750;9.078;2024-02-28T14:06:51;7.40;99.90
2300;DHT22;1158;48.750;9.078;2024-02-28T14:09:19;7.20;99.90
2300;DHT22;1158;48.750;9.078;2024-02-28T14:11:45;7.40;99.90
2300;DHT22;1158;48.750;9.078;2024-02-28T14:14:12;7.80;99.90
2300;DHT22;1158;48.750;9.078;2024-02-28T14:16:39;7.70;99.90
2300;DHT22;1158;48.750;9.078;2024-02-28T14:19:05;7.30;99.90
2300;DHT22;1158;48.750;9.078;2024-02-28T14:21:32;7.50;99.90
2300;DHT22;1158;48.750;9.078;2024-02-28T14:23:59;7.60;99.90
2300;DHT22;1158;48.750;9.078;2024-02-28T14:26:27;7.50;99.90
2300;DHT22;1158;48.750;9.078;2024-02-28T14:28:54;7.30;99.90
2300;DHT22;1158;48.750;9.078;2024-02-28T14:31:22;7.60;99.90
2300;DHT22;1158;48.750;9.078;2024-02-28T14:33:50;7.80;99.90
2300;DHT22;1158;48.750;9.078;2024-02-28T14:36:17;7.50;99.90
2300;DHT22;1158;48.750;9.078;2024-02-28T14:38:45;7.30;99.90
2300;DHT22;1158;48.750;9.078;2024-02-28T14:41:12;7.30;99.90
2300;DHT22;1158;48.750;9.078;2024-02-28T14:43:41;7.40;99.90
2300;DHT22;1158;48.750;9.078;2024-02-28T14:46:07;7.40;99.90
2300;DHT22;1158;48.750;9.078;2024-02-28T14:48:35;7.20;99.90
2300;DHT22;1158;48.750;9.078;2024-02-28T14:51:02;7.20;99.90
2300;DHT22;1158;48.750;9.078;2024-02-28T14:53:29;7.00;99.90
2300;DHT22;1158;48.750;9.078;2024-02-28T14:55:55;7.20;99.90
2300;DHT22;1158;48.750;9.078;2024-02-28T14:58:22;7.10;99.90
2300;DHT22;1158;48.750;9.078;2024-02-28T15:00:50;7.10;99.90
2300;DHT22;1158;48.750;9.078;2024-02-28T15:03:17;7.00;99.90
2300;DHT22;1158;48.750;9.078;2024-02-28T15:05:44;7.10;99.90
2300;DHT22;1158;48.750;9.078;2024-02-28T15:08:10;7.00;99.90
2300;DHT22;1158;48.750;9.078;2024-02-28T15:10:37;7.00;99.90
2300;DHT22;1158;48.750;9.078;2024-02-28T15:13:04;7.00;99.90
2300;DHT22;1158;48.750;9.078;2024-02-28T15:15:31;7.20;99.90
2300;DHT22;1158;48.750;9.078;2024-02-28T15:17:59;7.20;99.90
2300;DHT22;1158;48.750;9.078;2024-02-28T15:20:27;7.10;99.90
2300;DHT22;1158;48.750;9.078;2024-02-28T15:22:53;7.10;99.90
2300;DHT22;1158;48.750;9.078;2024-02-28T15:25:20;6.90;99.90
2300;DHT22;1158;48.750;9.078;2024-02-28T15:27:48;6.90;99.90
2300;DHT22;1158;48.750;9.078;2024-02-28T15:30:14;6.80;99.90
2300;DHT22;1158;48.750;9.078;2024-02-28T15:32:41;6.70;99.90
2300;DHT22;1158;48.750;9.078;2024-02-28T15:35:10;6.60;99.90
2300;DHT22;1158;48.750;9.078;2024-02-28T15:37:37;6.50;99.90
2300;DHT22;1158;48.750;9.078;2024-02-28T15:40:04;6.50;99.90
2300;DHT22;1158;48.750;9.078;2024-02-28T15:42:32;6.60;99.90
2300;DHT22;1158;48.750;9.078;2024-02-28T15:44:58;6.70;99.90
2300;DHT22;1158;48.750;9.078;2024-02-28T15:47:25;6.60;99.90
2300;DHT22;1158;48.750;9.078;2024-02-28T15:49:54;6.60;99.90
2300;DHT22;1158;48.750;9.078;2024-02-28T15:52:22;6.60;99.90
2300;DHT22;1158;48.750;9.078;2024-02-28T15:54:49;6.50;99.90
2300;DHT22;1158;48.750;9.078;2024-02-28T15:57:16;6.40;99.90
2300;DHT22;1158;48.750;9.078;2024-02-28T15:59:43;6.30;99.90
2300;DHT22;1158;48.750;9.078;2024-02-28T16:02:10;6.30;99.90
2300;DHT22;1158;48.750;9.078;2024-02-28T16:04:37;6.30;99.90
2300;DHT22;1158;48.750;9.078;2024-02-28T16:07:04;6.20;99.90
2300;DHT22;1158;48.750;9.078;2024-02-28T16:09:32;6.20;99.90
2300;DHT22;1158;48.750;9.078;2024-02-28T16:11:59;6.50;99.90
2300;DHT22;1158;48.750;9.078;2024-02-28T16:14:25;7.30;99.90
2300;DHT22;1158;48.750;9.078;2024-02-28T16:16:52;7.00;99.90